Frey Ranch - Fallon, Nevada Weather observations

Data are for observation ending at time listed.
 Day   Time    Ave.   Ave.  Ave.  Vector   Max.   Stn.    Total    Solar   Ave.  
  of    of     Air    Rel.  Wind   Wind    Wind   Baro.  Precip.   Rad.    Soil  
Year   Day     Temp.  Hum.  Speed  Dir.    Gust   Pres.                    Temp. 
2014   (PST)    F      %     mph   deg.    mph     mb.     in.     W/m2     F   
------------------------------------------------------------------------------
 238   17:50   81.4    19    1.3    17      3.7   999.0    0.00      94    80.5
 238   18:00   79.6    20    1.1    22      3.5   999.0    0.00      60    80.5
 238   18:10   78.2    22    1.0    26      2.9   999.0    0.00      31    80.6
 238   18:20   76.2    24    1.5    28      3.6   999.0    0.00      12    80.6
 238   18:30   74.5    24    1.1    30      2.9   999.0    0.00       4    80.7
 238   18:40   73.7    24    0.7    32      1.8   999.0    0.00       1    80.8
 238   18:50   71.9    29    0.0     0      0.0   999.0    0.00       0    80.8
 238   19:00   70.7    29    0.0     0      0.0   999.0    0.00       0    80.9
 238   19:10   70.4    29    0.0     0      0.0   999.0    0.00       0    81.0
 238   19:20   70.3    28    0.0     0      0.0   999.0    0.00       0    81.0
 238   19:30   70.8    28    0.0     0      0.0   999.0    0.00       0    81.1
 238   19:40   69.5    30    0.0     0      0.0   999.0    0.00       0    81.1
 238   19:50   68.6    32    0.0     0      0.0   999.0    0.00       0    81.2
 238   20:00   67.3    35    0.0     0      0.0   999.0    0.00       0    81.2
 238   20:10   65.5    42    0.7   300      4.8   999.0    0.00       0    81.2
 238   20:20   62.1    42    2.9   290      3.7   999.0    0.00       0    81.3
 238   20:30   62.1    41    2.2   290      3.4   999.0    0.00       0    81.3
 238   20:40   62.6    42    1.6   290      1.9   999.0    0.00       0    81.3
 238   20:50   62.7    41    1.7   281      4.2   999.0    0.00       0    81.3
 238   21:00   61.7    42    1.6   275      4.2   999.0    0.00       0    81.4
 238   21:10   64.1    36    1.9   281      2.9   999.0    0.00       0    81.4
 238   21:20   65.5    32    3.1   326      4.9   999.0    0.00       0    81.4
 238   21:30   65.6    32    3.2   344      4.2   999.0    0.00       0    81.4
 238   21:40   66.0    32    2.4   344      3.6   999.0    0.00       0    81.4
 238   21:50   63.6    38    1.6   343      3.0   999.0    0.00       0    81.4
 238   22:00   58.7    44    1.8   219      5.1   999.0    0.00       0    81.4
 238   22:10   57.4    44    0.6   225      1.9   999.0    0.00       0    81.4
 238   22:20   58.7    42    0.1   228      1.5   999.0    0.00       0    81.4
 238   22:30   57.4    44    0.7   228      1.8   999.0    0.00       0    81.4
 238   22:40   57.5    44    1.3   237      2.0   999.0    0.00       0    81.4
 238   22:50   58.8    42    0.0     0      0.0   999.0    0.00       0    81.4
 238   23:00   59.8    40    0.7   314      4.3   999.0    0.00       0    81.4
 238   23:10   63.4    31    4.0   324      5.3   999.0    0.00       0    81.4
 238   23:20   63.7    31    3.8   329      6.0   999.0    0.00       0    81.4
 238   23:30   58.9    37    2.0   156      5.6   999.0    0.00       0    81.4
 238   23:40   56.9    40    1.7   193      4.0   999.0    0.00       0    81.4
 238   23:50   56.0    42    1.1   234      2.7   999.0    0.00       0    81.3
 239    0:00   55.2    42    2.6   267      4.2   999.0    0.00       0    81.3
 239    0:10   56.3    38    2.5   283      2.9   999.0    0.00       0    81.3
 239    0:20   56.6    38    3.0   283      3.5   999.0    0.00       0    81.3
 239    0:30   56.7    37    2.4   283      3.6   999.0    0.00       0    81.2
 239    0:40   55.6    40    2.0   275      3.1   999.0    0.00       0    81.2
 239    0:50   54.6    41    1.0   278      2.8   999.0    0.00       0    81.2
 239    1:00   55.9    37    0.6   284      2.5   999.0    0.00       0    81.1
 239    1:10   53.3    43    3.0    65      4.5   999.0    0.00       0    81.1
 239    1:20   53.7    41    1.8    86      2.8   999.0    0.00       0    81.1
 239    1:30   54.9    40    1.3    85      2.0   999.0    0.00       0    81.1
 239    1:40   55.9    38    2.4    82      3.6   999.0    0.00       0    81.0
 239    1:50   55.9    36    2.6    78      3.5   999.0    0.00       0    81.0
 239    2:00   56.8    36    0.2    86      1.6   999.0    0.00       0    80.9
 239    2:10   55.4    41    0.8    87      1.9   999.0    0.00       0    80.9
 239    2:20   53.9    40    1.9    89      3.0   999.0    0.00       0    80.9
 239    2:30   54.7    38    1.3    89      2.3   999.0    0.00       0    80.8
 239    2:40   54.5    39    1.5   126      3.9   999.0    0.00       0    80.8
 239    2:50   54.7    39    0.7   145      1.9   999.0    0.00       0    80.7
 239    3:00   54.7    42    1.2   145      2.2   999.0    0.00       0    80.7
 239    3:10   53.2    47    0.1   144      0.8   999.0    0.00       0    80.6
 239    3:20   51.4    46    0.4   113      2.0   999.0    0.00       0    80.6
 239    3:30   51.4    48    0.9   102      2.0   999.0    0.00       0    80.5
 239    3:40   51.0    48    1.0   101      1.8   999.0    0.00       0    80.5
 239    3:50   52.9    41    2.3    96      4.1   999.0    0.00       0    80.4
 239    4:00   53.9    38    3.7    67      4.9   999.0    0.00       0    80.4
 239    4:10   53.5    38    3.1    76      5.1   999.0    0.00       0    80.3
 239    4:20   53.6    38    1.2    82      2.0   999.0    0.00       0    80.3
 239    4:30   52.3    41    0.8    78      2.2   999.0    0.00       0    80.3
 239    4:40   50.9    45    0.3   101      1.2   999.0    0.00       0    80.2
 239    4:50   51.4    44    1.6    92      2.7   999.0    0.00       0    80.2
 239    5:00   51.8    45    1.5    86      2.0   999.0    0.00       1    80.1
 239    5:10   51.7    46    1.1    77      1.7   999.0    0.00       4    80.1
 239    5:20   50.7    53    0.9    74      2.7   999.0    0.00       9    80.0
 239    5:30   51.3    47    1.1    75      2.8   999.0    0.00      19    80.0
 239    5:40   51.6    49    0.2    74      1.6   999.0    0.00      39    79.9
 239    5:50   52.9    48    0.4    74      1.6   999.0    0.00      68    79.8
 239    6:00   55.5    43    0.3    74      1.2   999.0    0.00     107    79.8
 239    6:10   57.3    40    0.8    68      1.7   999.0    0.00     145    79.7
 239    6:20   59.8    36    0.0    66      0.8   999.0    0.00     178    79.7
 239    6:30   62.1    32    0.1    66      0.8   999.0    0.00     213    79.6
 239    6:40   61.5    33    0.9   133      2.3   999.0    0.00     247    79.6
 239    6:50   62.5    34    1.3   142      2.7   999.0    0.00     283    79.5
 239    7:00   66.2    31    0.9   142      2.2   999.0    0.00     319    79.5
 239    7:10   68.0    31    0.8   142      2.0   999.0    0.00     355    79.4
 239    7:20   69.5    30    0.2   141      1.4   999.0    0.00     391    79.4
 239    7:30   71.8    27    0.3   141      1.3   999.0    0.00     424    79.3
 239    7:40   72.2    28    0.7   139      2.3   999.0    0.00     462    79.3
 239    7:50   74.4    25    0.5   138      1.4   999.0    0.00     497    79.2
 239    8:00   76.0    23    0.4   140      2.0   999.0    0.00     529    79.2
 239    8:10   75.9    22    1.1   207      4.7   999.0    0.00     562    79.1
 239    8:20   74.8    24    1.4   224      4.1   999.0    0.00     594    79.1
 239    8:30   75.9    23    2.1   242      4.5   999.0    0.00     625    79.0
 239    8:40   78.1    21    0.5   283      4.7   999.0    0.00     658    79.0
 239    8:50   79.2    20    1.5   311      3.6   999.0    0.00     681    78.9
 239    9:00   78.5    19    2.0   254      5.7   999.0    0.00     706    78.9
 239    9:10   78.7    19    1.9   278      4.3   999.0    0.00     741    78.8
 239    9:20   79.3    19    2.4   286      7.0   999.0    0.00     765    78.8
 239    9:30   80.1    18    1.2   286      3.5   999.0    0.00     788    78.7
 239    9:40   80.5    18    2.7   316      5.4   999.0    0.00     812    78.7
 239    9:50   81.9    16    1.5     6      4.2   999.0    0.00     834    78.6
 239   10:00   81.4    18    3.1   288      5.8   999.0    0.00     853    78.6
 239   10:10   81.4    18    2.3   296      5.1   999.0    0.00     874    78.5
 239   10:20   82.6    17    2.2   338      5.3   999.0    0.00     888    78.5
 239   10:30   82.9    17    2.2   319      4.1   999.0    0.00     904    78.5
 239   10:40   82.9    17    2.5   259      5.3   999.0    0.00     914    78.5
 239   10:50   83.1    17    2.9   318      5.4   999.0    0.00     930    78.5
 239   11:00   83.8    16    2.4   167      4.8   999.0    0.00     942    78.4
 239   11:10   83.8    16    2.3   212      4.0   999.0    0.00     950    78.4
 239   11:20   83.8    16    3.3   231      7.2   999.0    0.00     957    78.4
 239   11:30   83.9    16    2.9   257      7.8   999.0    0.00     964    78.4
 239   11:40   84.0    15    3.1     8      6.7   999.0    0.00     967    78.4
 239   11:50   86.1    14    2.6     4      5.8   999.0    0.00     966    78.4
 239   12:00   84.9    14    3.4   312      7.4   999.0    0.00     966    78.4
 239   12:10   85.5    14    2.9   111      5.3   999.0    0.00     967    78.4
 239   12:20   86.6    16    4.4   302      9.4   999.0    0.00     962    78.4
 239   12:30   85.4    15    5.5   262     12.1   999.0    0.00     958    78.5
 239   12:40   85.6    16    4.5   261      9.0   999.0    0.00     949    78.5
 239   12:50   86.6    15    3.0   320      7.2   999.0    0.00     940    78.5
 239   13:00   87.5    13    1.9   309      6.1   999.0    0.00     925    78.5
 239   13:10   87.9    14    3.5   341     10.8   999.0    0.00     912    78.6
 239   13:20   86.3    15    5.0   325     10.3   999.0    0.00     900    78.6
 239   13:30   86.9    14    3.7   260      7.1   999.0    0.00     886    78.7
 239   13:40   86.8    14    5.3   243      9.7   999.0    0.00     868    78.7
 239   13:50   86.9    15    4.4   262      8.5   999.0    0.00     849    78.8
 239   14:00   88.4    12    1.5   344      4.2   999.0    0.00     823    78.8
 239   14:10   89.2    13    2.2   314      6.3   999.0    0.00     799    78.9
 239   14:20   89.8    12    2.9     7      5.8   999.0    0.00     778    78.9
 239   14:30   89.5    12    2.0    21      5.7   999.0    0.00     754    79.0
 239   14:40   88.5    12    2.8   232      6.4   999.0    0.00     723    79.1
 239   14:50   89.9    12    2.2     6      6.8   999.0    0.00     697    79.1
 239   15:00   90.2    12    2.7   351      6.4   999.0    0.00     668    79.2
 239   15:10   88.9    12    2.1    10      6.2   999.0    0.00     640    79.3
 239   15:20   89.4    13    2.0   311      5.2   999.0    0.00     607    79.3
 239   15:30   88.8    13    3.3   257      6.0   999.0    0.00     575    79.4
 239   15:40   88.5    14    3.7   314      6.4   999.0    0.00     547    79.5
 239   15:50   87.8    14    3.5   316      5.7   999.0    0.00     515    79.6
 239   16:00   89.2    13    1.8   282      3.9   999.0    0.00     480    79.6
 239   16:10   89.0    13    2.8   296      7.2   999.0    0.00     446    79.7
 239   16:20   88.8    13    2.1   293      4.8   999.0    0.00     411    79.8
 239   16:30   89.9    13    2.1   307      4.3   999.0    0.00     376    79.9
 239   16:40   89.1    12    1.3   333      3.4   999.0    0.00     339    80.0
 239   16:50   89.2    13    0.5    35      1.8   999.0    0.00     302    80.1
 239   17:00   89.0    13    1.4   235      3.7   999.0    0.00     267    80.1
 239   17:10   89.0    13    0.8   324      2.7   999.0    0.00     233    80.2
 239   17:20   90.0    13    0.7   333      1.9   999.0    0.00     198    80.3
 239   17:30   89.2    13    0.3    81      2.6   999.0    0.00     162    80.4
 239   17:40   87.5    16    0.0     0      0.0   999.0    0.00     129    80.5

Return to Frey Ranch - Fallon, Nevada graphs page.


Western Regional Climate Center,wrcc@dri.edu